Time;durP1;ratioP1;P1;durP2;ratioP2;P2;SDS_P1;SDS_P2;PMS_P1;PMS_P2;Temp;Humidity;BMP_temperature;BMP_pressure;BME280_temperature;BME280_humidity;BME280_pressure;Samples;Min_cycle;Max_cycle;Signal;HPM_P1;HPM_P2
2023/03/24 00:01:52;;;;;;;;;;;;;;;;;;5055287;28;20335;-71
2023/03/24 00:04:57;;;;;;;;;;;;;;;;;;5055046;28;19920;-71
2023/03/24 00:08:01;;;;;;;;;;;;;;;;;;5055372;28;19974;-71
2023/03/24 00:11:05;;;;;;;;;;;;;;;;;;5055411;28;19923;-71
2023/03/24 00:14:10;;;;;;;;;;;;;;;;;;5055281;28;19920;-71
2023/03/24 00:17:16;;;;;;;;;;;;;;;;;;5053714;28;19923;-71
2023/03/24 00:20:19;;;;;;;;;;;;;;;;;;5053543;28;19966;-71
2023/03/24 00:23:22;;;;;;;;;;;;;;;;;;5055006;28;20062;-71
2023/03/24 00:26:25;;;;;;;;;;;;;;;;;;5054721;28;19959;-71
2023/03/24 00:29:28;;;;;;;;;;;;;;;;;;5054911;28;19966;-72
2023/03/24 00:32:31;;;;;;;;;;;;;;;;;;5077134;28;19969;-71
2023/03/24 00:35:33;;;;;;;;;;;;;;;;;;5054644;28;19919;-72
2023/03/24 00:38:37;;;;;;;;;;;;;;;;;;5054503;28;20018;-72
2023/03/24 00:41:39;;;;;;;;;;;;;;;;;;5076991;28;19919;-71
2023/03/24 00:44:43;;;;;;;;;;;;;;;;;;5054450;28;19920;-72
2023/03/24 00:47:48;;;;;;;;;;;;;;;;;;5054362;28;19963;-72
2023/03/24 00:50:51;;;;;;;;;;;;;;;;;;5054538;28;19924;-72
2023/03/24 00:53:56;;;;;;;;;;;;;;;;;;5054049;28;19924;-72
2023/03/24 00:57:01;;;;;;;;;;;;;;;;;;5054170;28;19935;-72
2023/03/24 01:00:13;;;;;;;;;;;;;;;;;;5054168;28;20012;-72
2023/03/24 01:03:16;;;;;;;;;;;;;;;;;;5054360;28;19923;-72
2023/03/24 01:06:22;;;;;;;;;;;;;;;;;;5054005;28;19920;-72
2023/03/24 01:09:25;;;;;;;;;;;;;;;;;;5076402;28;19980;-72
2023/03/24 01:12:28;;;;;;;;;;;;;;;;;;5054247;28;19920;-71
2023/03/24 01:15:32;;;;;;;;;;;;;;;;;;5053267;28;19919;-72
2023/03/24 01:18:39;;;;;;;;;;;;;;;;;;5053730;28;19963;-71
2023/03/24 01:21:42;;;;;;;;;;;;;;;;;;5053692;28;19920;-72
2023/03/24 01:24:45;;;;;;;;;;;;;;;;;;5053701;28;19978;-71
2023/03/24 01:27:47;;;;;;;;;;;;;;;;;;5053589;28;20384;-71
2023/03/24 01:30:51;;;;;;;;;;;;;;;;;;5053541;28;19962;-72
2023/03/24 01:33:54;;;;;;;;;;;;;;;;;;5053370;28;19977;-72
2023/03/24 01:36:56;;;;;;;;;;;;;;;;;;5053197;28;20002;-71
2023/03/24 01:39:59;;;;;;;;;;;;;;;;;;5053431;28;19919;-72
2023/03/24 01:43:02;;;;;;;;;;;;;;;;;;5053324;28;19920;-72
2023/03/24 01:46:05;;;;;;;;;;;;;;;;;;5075973;28;19919;-72
2023/03/24 01:49:08;;;;;;;;;;;;;;;;;;5075675;28;19922;-72
2023/03/24 01:52:12;;;;;;;;;;;;;;;;;;5075396;28;19920;-72
2023/03/24 01:55:17;;;;;;;;;;;;;;;;;;5053666;28;19927;-72
2023/03/24 01:58:20;;;;;;;;;;;;;;;;;;5075475;28;20177;-72
2023/03/24 02:01:44;;;;;;;;;;;;;;;;;;5053211;28;19920;-72
2023/03/24 02:05:13;;;;;;;;;;;;;;;;;;5053175;28;19920;-72
2023/03/24 02:08:19;;;;;;;;;;;;;;;;;;5075552;28;19987;-72
2023/03/24 02:11:22;;;;;;;;;;;;;;;;;;5075536;28;19962;-72
2023/03/24 02:14:29;;;;;;;;;;;;;;;;;;5075422;28;19939;-72
2023/03/24 02:17:33;;;;;;;;;;;;;;;;;;5075340;28;19939;-72
2023/03/24 02:20:36;;;;;;;;;;;;;;;;;;5075311;28;19936;-72
2023/03/24 02:23:38;;;;;;;;;;;;;;;;;;5075271;28;19956;-72
2023/03/24 02:26:41;;;;;;;;;;;;;;;;;;5051984;28;19940;-72
2023/03/24 02:29:44;;;;;;;;;;;;;;;;;;5053065;28;19920;-72
2023/03/24 02:32:47;;;;;;;;;;;;;;;;;;5052749;28;20058;-72
2023/03/24 02:35:49;;;;;;;;;;;;;;;;;;5052659;28;20387;-73
2023/03/24 02:38:53;;;;;;;;;;;;;;;;;;5052897;28;19923;-72
2023/03/24 02:41:57;;;;;;;;;;;;;;;;;;5075363;28;20331;-72
2023/03/24 02:45:00;;;;;;;;;;;;;;;;;;5052824;28;19967;-72
2023/03/24 02:48:03;;;;;;;;;;;;;;;;;;5074942;28;19920;-72
2023/03/24 02:51:06;;;;;;;;;;;;;;;;;;5075180;28;20015;-72
2023/03/24 02:54:09;;;;;;;;;;;;;;;;;;5052404;28;19975;-72
2023/03/24 02:57:11;;;;;;;;;;;;;;;;;;5075021;28;19927;-72
2023/03/24 03:00:35;;;;;;;;;;;;;;;;;;5052155;28;20118;-72
2023/03/24 03:03:58;;;;;;;;;;;;;;;;;;5051002;28;19928;-72
2023/03/24 03:07:05;;;;;;;;;;;;;;;;;;5074711;28;20015;-72
2023/03/24 03:10:08;;;;;;;;;;;;;;;;;;5074776;28;20334;-72
2023/03/24 03:13:10;;;;;;;;;;;;;;;;;;5074930;28;19939;-72
2023/03/24 03:16:13;;;;;;;;;;;;;;;;;;5074842;28;19967;-72
2023/03/24 03:19:16;;;;;;;;;;;;;;;;;;5052358;28;19919;-72
2023/03/24 03:22:21;;;;;;;;;;;;;;;;;;5074638;28;20277;-72
2023/03/24 03:25:24;;;;;;;;;;;;;;;;;;5074797;28;20312;-72
2023/03/24 03:28:28;;;;;;;;;;;;;;;;;;5074698;28;20364;-72
2023/03/24 03:31:31;;;;;;;;;;;;;;;;;;5074803;28;19935;-72
2023/03/24 03:34:35;;;;;;;;;;;;;;;;;;5074595;28;19936;-73
2023/03/24 03:37:38;;;;;;;;;;;;;;;;;;5053041;28;19971;-72
2023/03/24 03:40:44;;;;;;;;;;;;;;;;;;5078437;28;19924;-73
2023/03/24 03:43:53;;;;;;;;;;;;;;;;;;5055861;28;19920;-72
2023/03/24 03:46:56;;;;;;;;;;;;;;;;;;5055799;28;20276;-72
2023/03/24 03:50:09;;;;;;;;;;;;;;;;;;5078179;28;19920;-72
2023/03/24 03:53:12;;;;;;;;;;;;;;;;;;5078069;28;20380;-72
2023/03/24 03:56:17;;;;;;;;;;;;;;;;;;5055721;28;19976;-72
2023/03/24 03:59:29;;;;;;;;;;;;;;;;;;5077848;28;19920;-72
2023/03/24 04:02:34;;;;;;;;;;;;;;;;;;5077937;28;19999;-72
2023/03/24 04:05:37;;;;;;;;;;;;;;;;;;5077840;28;20000;-72
2023/03/24 04:08:43;;;;;;;;;;;;;;;;;;5055226;28;20415;-72
2023/03/24 04:12:07;;;;;;;;;;;;;;;;;;5077798;28;19919;-72
2023/03/24 04:15:40;;;;;;;;;;;;;;;;;;5054237;28;19967;-72
2023/03/24 04:18:59;;;;;;;;;;;;;;;;;;5077416;28;20308;-72
2023/03/24 04:22:03;;;;;;;;;;;;;;;;;;5055135;28;20007;-71
2023/03/24 04:25:06;;;;;;;;;;;;;;;;;;5077496;28;20383;-72
2023/03/24 04:28:09;;;;;;;;;;;;;;;;;;5077730;28;19919;-72
2023/03/24 04:31:14;;;;;;;;;;;;;;;;;;5077672;28;19923;-72
2023/03/24 04:34:19;;;;;;;;;;;;;;;;;;5077483;28;19919;-72
2023/03/24 04:37:22;;;;;;;;;;;;;;;;;;5077171;28;19928;-72
2023/03/24 04:40:35;;;;;;;;;;;;;;;;;;5077574;28;20059;-72
2023/03/24 04:43:38;;;;;;;;;;;;;;;;;;5077241;28;20388;-72
2023/03/24 04:46:44;;;;;;;;;;;;;;;;;;5077130;28;19924;-72
2023/03/24 04:49:52;;;;;;;;;;;;;;;;;;5076320;28;19935;-71
2023/03/24 04:52:56;;;;;;;;;;;;;;;;;;5076643;28;20063;-71
2023/03/24 04:56:02;;;;;;;;;;;;;;;;;;5054356;28;20020;-71
2023/03/24 04:59:26;;;;;;;;;;;;;;;;;;5054366;28;19966;-72
2023/03/24 05:02:30;;;;;;;;;;;;;;;;;;5076866;28;19919;-72
2023/03/24 05:05:36;;;;;;;;;;;;;;;;;;5076619;28;20388;-71
2023/03/24 05:08:40;;;;;;;;;;;;;;;;;;5076677;28;19966;-72
2023/03/24 05:11:43;;;;;;;;;;;;;;;;;;5076836;28;19920;-72
2023/03/24 05:14:46;;;;;;;;;;;;;;;;;;5076742;28;19985;-72
2023/03/24 05:17:51;;;;;;;;;;;;;;;;;;5076468;28;19955;-71
2023/03/24 05:20:55;;;;;;;;;;;;;;;;;;5076043;28;19919;-71
2023/03/24 05:23:58;;;;;;;;;;;;;;;;;;5074866;28;20423;-71
2023/03/24 05:27:01;;;;;;;;;;;;;;;;;;5076281;28;20004;-71
2023/03/24 05:30:05;;;;;;;;;;;;;;;;;;5076223;28;19923;-72
2023/03/24 05:33:09;;;;;;;;;;;;;;;;;;5076470;28;19947;-73
2023/03/24 05:36:16;;;;;;;;;;;;;;;;;;5053782;28;19939;-72
2023/03/24 05:39:25;;;;;;;;;;;;;;;;;;5065377;28;19935;-73
2023/03/24 05:42:35;;;;;;;;;;;;;;;;;;5076036;28;20425;-72
2023/03/24 05:45:40;;;;;;;;;;;;;;;;;;5076350;28;19934;-72
2023/03/24 05:48:43;;;;;;;;;;;;;;;;;;5075715;28;19935;-72
2023/03/24 05:52:09;;;;;;;;;;;;;;;;;;5060666;28;19966;-73
2023/03/24 05:55:14;;;;;;;;;;;;;;;;;;5074867;28;19959;-73
2023/03/24 05:58:20;;;;;;;;;;;;;;;;;;5053177;28;19944;-71
2023/03/24 06:01:27;;;;;;;;;;;;;;;;;;5075318;28;19938;-72
2023/03/24 06:04:37;;;;;;;;;;;;;;;;;;5075739;28;19920;-72
2023/03/24 06:07:49;;;;;;;;;;;;;;;;;;5075865;28;20003;-72
2023/03/24 06:10:57;;;;;;;;;;;;;;;;;;5052540;28;19967;-72
2023/03/24 06:14:00;;;;;;;;;;;;;;;;;;5064193;28;19935;-72
2023/03/24 06:17:14;;;;;;;;;;;;;;;;;;5065027;28;20296;-72
2023/03/24 06:20:19;;;;;;;;;;;;;;;;;;5075509;28;19974;-73
2023/03/24 06:23:34;;;;;;;;;;;;;;;;;;5065030;28;19919;-73
2023/03/24 06:26:49;;;;;;;;;;;;;;;;;;5075743;28;19994;-73
2023/03/24 06:29:59;;;;;;;;;;;;;;;;;;5052724;28;19929;-73
2023/03/24 06:33:06;;;;;;;;;;;;;;;;;;5063502;28;19920;-73
2023/03/24 06:36:09;;;;;;;;;;;;;;;;;;5063265;28;19920;-72
2023/03/24 06:39:19;;;;;;;;;;;;;;;;;;5072821;28;19920;-74
2023/03/24 06:42:22;;;;;;;;;;;;;;;;;;5072904;28;19939;-74
2023/03/24 06:45:25;;;;;;;;;;;;;;;;;;5062406;28;20008;-73
2023/03/24 06:48:28;;;;;;;;;;;;;;;;;;5074938;28;19919;-74
2023/03/24 06:51:37;;;;;;;;;;;;;;;;;;5074819;28;20360;-78
2023/03/24 06:54:40;;;;;;;;;;;;;;;;;;5074857;28;20416;-75
2023/03/24 06:57:43;;;;;;;;;;;;;;;;;;5074810;28;19928;-76
2023/03/24 07:01:06;;;;;;;;;;;;;;;;;;5052381;28;19920;-77
2023/03/24 07:04:11;;;;;;;;;;;;;;;;;;5074842;28;20300;-74
2023/03/24 07:07:32;;;;;;;;;;;;;;;;;;5081761;28;19920;-75
2023/03/24 07:10:59;;;;;;;;;;;;;;;;;;5074235;28;20380;-77
2023/03/24 07:14:02;;;;;;;;;;;;;;;;;;5066554;28;20315;-76
2023/03/24 07:17:07;;;;;;;;;;;;;;;;;;5078574;28;19963;-75
2023/03/24 07:20:29;;;;;;;;;;;;;;;;;;5055912;28;20408;-72
2023/03/24 07:23:53;;;;;;;;;;;;;;;;;;5078051;28;19935;-75
2023/03/24 07:27:01;;;;;;;;;;;;;;;;;;5077262;28;19959;-75
2023/03/24 07:30:08;;;;;;;;;;;;;;;;;;5066849;28;19971;-74
2023/03/24 07:33:16;;;;;;;;;;;;;;;;;;5055974;28;20383;-74
2023/03/24 07:36:20;;;;;;;;;;;;;;;;;;5053771;28;20063;-74
2023/03/24 07:39:28;;;;;;;;;;;;;;;;;;5054383;28;19919;-75
2023/03/24 07:42:35;;;;;;;;;;;;;;;;;;5076369;28;19919;-75
2023/03/24 07:46:13;;;;;;;;;;;;;;;;;;5052658;28;20328;-75
2023/03/24 07:49:16;;;;;;;;;;;;;;;;;;5054118;28;20011;-75
2023/03/24 07:52:22;;;;;;;;;;;;;;;;;;5077152;28;19936;-74
2023/03/24 07:55:28;;;;;;;;;;;;;;;;;;5055131;28;19955;-74
2023/03/24 07:58:36;;;;;;;;;;;;;;;;;;5077347;28;20454;-73
2023/03/24 08:02:01;;;;;;;;;;;;;;;;;;5055540;28;20292;-73
2023/03/24 08:05:43;;;;;;;;;;;;;;;;;;5052347;28;19920;-78
2023/03/24 08:08:56;;;;;;;;;;;;;;;;;;5055194;28;20391;-73
2023/03/24 08:12:00;;;;;;;;;;;;;;;;;;5055068;28;19955;-74
2023/03/24 08:15:03;;;;;;;;;;;;;;;;;;5072315;28;20021;-73
2023/03/24 08:18:06;;;;;;;;;;;;;;;;;;5072378;28;19923;-72
2023/03/24 08:21:09;;;;;;;;;;;;;;;;;;5072993;28;19927;-73
2023/03/24 08:24:12;;;;;;;;;;;;;;;;;;5072924;28;20391;-71
2023/03/24 08:27:33;;;;;;;;;;;;;;;;;;;;;
2023/03/24 08:30:51;;;;;;;;;;;;;;;;;;5071536;28;19920;-72
2023/03/24 08:33:55;;;;;;;;;;;;;;;;;;5070343;28;19919;-74
2023/03/24 08:36:59;;;;;;;;;;;;;;;;;;5072225;28;20576;-73
2023/03/24 08:40:04;;;;;;;;;;;;;;;;;;5072258;28;20338;-76
2023/03/24 08:43:07;;;;;;;;;;;;;;;;;;5071468;28;19958;-75
2023/03/24 08:46:11;;;;;;;;;;;;;;;;;;5071042;28;19965;-74
2023/03/24 08:49:14;;;;;;;;;;;;;;;;;;5072240;28;20272;-75
2023/03/24 08:52:17;;;;;;;;;;;;;;;;;;5072512;28;19965;-75
2023/03/24 08:55:20;;;;;;;;;;;;;;;;;;5072749;28;19923;-74
2023/03/24 08:58:23;;;;;;;;;;;;;;;;;;5072163;28;19932;-75
2023/03/24 09:01:26;;;;;;;;;;;;;;;;;;5073032;28;19920;-73
2023/03/24 09:04:29;;;;;;;;;;;;;;;;;;5070006;28;19935;-74
2023/03/24 09:07:32;;;;;;;;;;;;;;;;;;5071045;28;19919;-76
2023/03/24 09:10:35;;;;;;;;;;;;;;;;;;5072600;28;19965;-72
2023/03/24 09:13:38;;;;;;;;;;;;;;;;;;5070329;28;20024;-72
2023/03/24 09:16:42;;;;;;;;;;;;;;;;;;5070789;28;19999;-72
2023/03/24 09:19:46;;;;;;;;;;;;;;;;;;5071231;28;20326;-72
2023/03/24 09:22:49;;;;;;;;;;;;;;;;;;5068245;28;19938;-74
2023/03/24 09:25:52;;;;;;;;;;;;;;;;;;5052977;28;19920;-73
2023/03/24 09:28:55;;;;;;;;;;;;;;;;;;5067915;28;19919;-74
2023/03/24 09:31:58;;;;;;;;;;;;;;;;;;5071103;28;19955;-73
2023/03/24 09:35:01;;;;;;;;;;;;;;;;;;5070835;28;19927;-74
2023/03/24 09:38:05;;;;;;;;;;;;;;;;;;5071525;28;19927;-73
2023/03/24 09:41:07;;;;;;;;;;;;;;;;;;5069549;28;20320;-73
2023/03/24 09:44:10;;;;;;;;;;;;;;;;;;5068986;28;20444;-74
2023/03/24 09:47:35;;;;;;;;;;;;;;;;;;5068276;28;20062;-74
2023/03/24 09:51:12;;;;;;;;;;;;;;;;;;5067588;28;19935;-73
2023/03/24 09:54:15;;;;;;;;;;;;;;;;;;5068051;28;19939;-73
2023/03/24 09:57:22;;;;;;;;;;;;;;;;;;5071087;28;19974;-73
2023/03/24 10:00:26;;;;;;;;;;;;;;;;;;5071768;28;20008;-73
2023/03/24 10:03:31;;;;;;;;;;;;;;;;;;5070236;28;20376;-73
2023/03/24 10:06:34;;;;;;;;;;;;;;;;;;5072200;28;20003;-72
2023/03/24 10:09:38;;;;;;;;;;;;;;;;;;5068945;28;19919;-73
2023/03/24 10:12:41;;;;;;;;;;;;;;;;;;5070441;28;19922;-72
2023/03/24 10:15:51;;;;;;;;;;;;;;;;;;5068722;28;19924;-73
2023/03/24 10:18:57;;;;;;;;;;;;;;;;;;5071447;28;20288;-73
2023/03/24 10:22:00;;;;;;;;;;;;;;;;;;5069943;28;19977;-72
2023/03/24 10:25:03;;;;;;;;;;;;;;;;;;5069794;28;19919;-73
2023/03/24 10:28:06;;;;;;;;;;;;;;;;;;5070169;28;20335;-73
2023/03/24 10:31:09;;;;;;;;;;;;;;;;;;5070568;28;19966;-73
2023/03/24 10:34:13;;;;;;;;;;;;;;;;;;5071464;28;19969;-73
2023/03/24 10:37:16;;;;;;;;;;;;;;;;;;5071329;28;19962;-74
2023/03/24 10:40:21;;;;;;;;;;;;;;;;;;5068982;28;19919;-74
2023/03/24 10:43:24;;;;;;;;;;;;;;;;;;5072477;28;19986;-73
2023/03/24 10:46:26;;;;;;;;;;;;;;;;;;5069197;28;19919;-73
2023/03/24 10:49:32;;;;;;;;;;;;;;;;;;5074117;28;19923;-73
2023/03/24 10:52:35;;;;;;;;;;;;;;;;;;5074819;28;19977;-74
2023/03/24 10:55:38;;;;;;;;;;;;;;;;;;5072818;28;19966;-74
2023/03/24 10:58:42;;;;;;;;;;;;;;;;;;5073480;28;19926;-74
2023/03/24 11:01:45;;;;;;;;;;;;;;;;;;5056361;28;20375;-73
2023/03/24 11:04:50;;;;;;;;;;;;;;;;;;5066978;28;19919;-73
2023/03/24 11:07:56;;;;;;;;;;;;;;;;;;5056594;28;20006;-73
2023/03/24 11:11:00;;;;;;;;;;;;;;;;;;5056435;28;19920;-72
2023/03/24 11:14:03;;;;;;;;;;;;;;;;;;5056516;28;20419;-73
2023/03/24 11:17:07;;;;;;;;;;;;;;;;;;5055932;28;19970;-72
2023/03/24 11:20:10;;;;;;;;;;;;;;;;;;5056307;28;19966;-73
2023/03/24 11:23:13;;;;;;;;;;;;;;;;;;5055417;28;19975;-73
2023/03/24 11:26:17;;;;;;;;;;;;;;;;;;5055702;28;19920;-73
2023/03/24 11:29:23;;;;;;;;;;;;;;;;;;5055039;28;19977;-73
2023/03/24 11:32:28;;;;;;;;;;;;;;;;;;5055868;28;19959;-73
2023/03/24 11:35:34;;;;;;;;;;;;;;;;;;5055760;28;19921;-74
2023/03/24 11:38:39;;;;;;;;;;;;;;;;;;5055614;28;19924;-74
2023/03/24 11:41:43;;;;;;;;;;;;;;;;;;5053519;28;19974;-73
2023/03/24 11:44:50;;;;;;;;;;;;;;;;;;5055707;28;19919;-72
2023/03/24 11:47:55;;;;;;;;;;;;;;;;;;5055627;28;19919;-72
2023/03/24 11:50:59;;;;;;;;;;;;;;;;;;5077502;28;20382;-73
2023/03/24 11:54:03;;;;;;;;;;;;;;;;;;5055268;28;19935;-73
2023/03/24 11:57:06;;;;;;;;;;;;;;;;;;5055523;28;20388;-74
2023/03/24 12:00:10;;;;;;;;;;;;;;;;;;5055207;28;19920;-73
2023/03/24 12:03:33;;;;;;;;;;;;;;;;;;5073014;28;19919;-73
2023/03/24 12:06:35;;;;;;;;;;;;;;;;;;5073146;28;19960;-73
2023/03/24 12:09:39;;;;;;;;;;;;;;;;;;5072622;28;20067;-73
2023/03/24 12:12:43;;;;;;;;;;;;;;;;;;5072586;28;19919;-73
2023/03/24 12:15:53;;;;;;;;;;;;;;;;;;5072608;28;19957;-73
2023/03/24 12:18:56;;;;;;;;;;;;;;;;;;5061212;28;19927;-72
2023/03/24 12:22:00;;;;;;;;;;;;;;;;;;5072751;28;19919;-74
2023/03/24 12:25:04;;;;;;;;;;;;;;;;;;5071857;28;19931;-73
2023/03/24 12:28:11;;;;;;;;;;;;;;;;;;5072819;28;19919;-74
2023/03/24 12:31:15;;;;;;;;;;;;;;;;;;5071944;28;20008;-74
2023/03/24 12:34:19;;;;;;;;;;;;;;;;;;5070849;28;19986;-74
2023/03/24 12:37:22;;;;;;;;;;;;;;;;;;5071309;28;20019;-73
2023/03/24 12:40:27;;;;;;;;;;;;;;;;;;5061684;28;20055;-74
2023/03/24 12:43:31;;;;;;;;;;;;;;;;;;5054575;28;20019;-75
2023/03/24 12:46:35;;;;;;;;;;;;;;;;;;5054739;28;19966;-74
2023/03/24 12:49:38;;;;;;;;;;;;;;;;;;5053933;28;20001;-74
2023/03/24 12:56:09;;;;;;;;;;;;;;;;;;5054254;28;20284;-74
2023/03/24 12:59:13;;;;;;;;;;;;;;;;;;5076773;28;19974;-71
2023/03/24 13:02:17;;;;;;;;;;;;;;;;;;5054178;28;19924;-73
2023/03/24 13:05:20;;;;;;;;;;;;;;;;;;5053331;28;20396;-73
2023/03/24 13:08:28;;;;;;;;;;;;;;;;;;5053490;28;19920;-72
2023/03/24 13:11:31;;;;;;;;;;;;;;;;;;5053065;28;19970;-76
2023/03/24 13:14:34;;;;;;;;;;;;;;;;;;5053304;28;19923;-74
2023/03/24 13:17:38;;;;;;;;;;;;;;;;;;5053768;28;19970;-75
2023/03/24 13:20:40;;;;;;;;;;;;;;;;;;5053063;28;19931;-76
2023/03/24 13:23:44;;;;;;;;;;;;;;;;;;5053401;28;19920;-78
2023/03/24 13:26:48;;;;;;;;;;;;;;;;;;5053615;28;19920;-75
2023/03/24 13:29:51;;;;;;;;;;;;;;;;;;5053849;28;19923;-75
2023/03/24 13:32:57;;;;;;;;;;;;;;;;;;5053119;28;19923;-74
2023/03/24 13:36:02;;;;;;;;;;;;;;;;;;5053506;28;19958;-75
2023/03/24 13:39:08;;;;;;;;;;;;;;;;;;5052821;28;20344;-76
2023/03/24 13:42:12;;;;;;;;;;;;;;;;;;5053067;28;19935;-73
2023/03/24 13:45:15;;;;;;;;;;;;;;;;;;5053430;28;19959;-73
2023/03/24 13:48:18;;;;;;;;;;;;;;;;;;5053103;28;20004;-74
2023/03/24 13:54:55;;;;;;;;;;;;;;;;;;5052239;28;19923;-75
2023/03/24 13:58:01;;;;;;;;;;;;;;;;;;5051549;28;21612;-74
2023/03/24 14:01:05;;;;;;;;;;;;;;;;;;5052030;28;19936;-74
2023/03/24 14:04:07;;;;;;;;;;;;;;;;;;5052563;28;19939;-73
2023/03/24 14:07:11;;;;;;;;;;;;;;;;;;5052719;28;20410;-73
2023/03/24 14:10:16;;;;;;;;;;;;;;;;;;5052906;28;20001;-73
2023/03/24 14:13:19;;;;;;;;;;;;;;;;;;5074737;28;20284;-73
2023/03/24 14:16:23;;;;;;;;;;;;;;;;;;5052835;28;19971;-73
2023/03/24 14:19:30;;;;;;;;;;;;;;;;;;5052618;28;19965;-73
2023/03/24 14:22:37;;;;;;;;;;;;;;;;;;5051370;28;19959;-73
2023/03/24 14:25:43;;;;;;;;;;;;;;;;;;5052878;28;19950;-73
2023/03/24 14:28:46;;;;;;;;;;;;;;;;;;5053416;28;19935;-73
2023/03/24 14:32:18;;;;;;;;;;;;;;;;;;5052546;28;19919;-73
2023/03/24 14:35:22;;;;;;;;;;;;;;;;;;5051229;28;20380;-73
2023/03/24 14:38:25;;;;;;;;;;;;;;;;;;5052369;28;19924;-74
2023/03/24 14:41:33;;;;;;;;;;;;;;;;;;5063099;28;19971;-73
2023/03/24 14:44:41;;;;;;;;;;;;;;;;;;5052694;28;20285;-73
2023/03/24 14:47:45;;;;;;;;;;;;;;;;;;5052662;28;19920;-73
2023/03/24 14:50:49;;;;;;;;;;;;;;;;;;5074520;28;19966;-74
2023/03/24 14:53:53;;;;;;;;;;;;;;;;;;5052128;28;19969;-74
2023/03/24 14:56:56;;;;;;;;;;;;;;;;;;5063107;28;19927;-73
2023/03/24 15:00:07;;;;;;;;;;;;;;;;;;5051992;28;19959;-73
2023/03/24 15:03:11;;;;;;;;;;;;;;;;;;5061121;28;20407;-73
2023/03/24 15:06:16;;;;;;;;;;;;;;;;;;5052057;28;19919;-73
2023/03/24 15:09:28;;;;;;;;;;;;;;;;;;5071426;28;19978;-75
2023/03/24 15:12:31;;;;;;;;;;;;;;;;;;5052181;28;19940;-74
2023/03/24 15:15:41;;;;;;;;;;;;;;;;;;5063813;28;20391;-74
2023/03/24 15:18:47;;;;;;;;;;;;;;;;;;5072026;28;19923;-73
2023/03/24 15:21:51;;;;;;;;;;;;;;;;;;5071272;28;20344;-73
2023/03/24 15:24:54;;;;;;;;;;;;;;;;;;5071761;28;19938;-74
2023/03/24 15:27:58;;;;;;;;;;;;;;;;;;5072163;28;19987;-73
2023/03/24 15:31:01;;;;;;;;;;;;;;;;;;5072034;28;19924;-74
2023/03/24 15:34:06;;;;;;;;;;;;;;;;;;5073595;28;19955;-73
2023/03/24 15:37:09;;;;;;;;;;;;;;;;;;5075704;28;20001;-74
2023/03/24 15:40:14;;;;;;;;;;;;;;;;;;5075616;28;19965;-74
2023/03/24 15:43:19;;;;;;;;;;;;;;;;;;5075394;28;19919;-74
2023/03/24 15:46:22;;;;;;;;;;;;;;;;;;5075624;28;20453;-74
2023/03/24 15:49:26;;;;;;;;;;;;;;;;;;5075472;28;19927;-75
2023/03/24 15:52:30;;;;;;;;;;;;;;;;;;5075525;28;20344;-74
2023/03/24 15:55:36;;;;;;;;;;;;;;;;;;5075770;28;19943;-75
2023/03/24 15:58:39;;;;;;;;;;;;;;;;;;5075317;28;19927;-75
2023/03/24 16:01:42;;;;;;;;;;;;;;;;;;5075435;28;19919;-75
2023/03/24 16:04:46;;;;;;;;;;;;;;;;;;5075168;28;20398;-75
2023/03/24 16:07:50;;;;;;;;;;;;;;;;;;5075503;28;19935;-72
2023/03/24 16:10:53;;;;;;;;;;;;;;;;;;5075180;28;19958;-75
2023/03/24 16:13:56;;;;;;;;;;;;;;;;;;5075131;28;19955;-72
2023/03/24 16:17:00;;;;;;;;;;;;;;;;;;5074723;28;19966;-76
2023/03/24 16:20:07;;;;;;;;;;;;;;;;;;5074913;28;19935;-75
2023/03/24 16:23:10;;;;;;;;;;;;;;;;;;5074719;28;20007;-76
2023/03/24 16:26:14;;;;;;;;;;;;;;;;;;5075184;28;19920;-76
2023/03/24 16:29:17;;;;;;;;;;;;;;;;;;5074262;28;20011;-77
2023/03/24 16:32:21;;;;;;;;;;;;;;;;;;5074327;28;19923;-77
2023/03/24 16:35:28;;;;;;;;;;;;;;;;;;5074775;28;19967;-73
2023/03/24 16:38:33;;;;;;;;;;;;;;;;;;5073845;28;19962;-72
2023/03/24 16:41:36;;;;;;;;;;;;;;;;;;5073053;28;19919;-75
2023/03/24 16:44:39;;;;;;;;;;;;;;;;;;5069853;28;20476;-73
2023/03/24 16:47:42;;;;;;;;;;;;;;;;;;5073048;28;20023;-70
2023/03/24 16:50:45;;;;;;;;;;;;;;;;;;5071035;28;19924;-74
2023/03/24 16:53:48;;;;;;;;;;;;;;;;;;5070788;28;19924;-73
2023/03/24 16:56:51;;;;;;;;;;;;;;;;;;5072233;28;19930;-72
2023/03/24 16:59:54;;;;;;;;;;;;;;;;;;5072148;28;19920;-72
2023/03/24 17:02:59;;;;;;;;;;;;;;;;;;5072549;28;19939;-72
2023/03/24 17:06:02;;;;;;;;;;;;;;;;;;5069558;28;19923;-73
2023/03/24 17:09:05;;;;;;;;;;;;;;;;;;5071003;28;19949;-72
2023/03/24 17:12:16;;;;;;;;;;;;;;;;;;5071129;28;19920;-73
2023/03/24 17:15:44;;;;;;;;;;;;;;;;;;5069477;28;19919;-72
2023/03/24 17:18:47;;;;;;;;;;;;;;;;;;5068623;28;19973;-72
2023/03/24 17:21:50;;;;;;;;;;;;;;;;;;5070612;28;19919;-73
2023/03/24 17:24:57;;;;;;;;;;;;;;;;;;5070642;28;20466;-72
2023/03/24 17:27:59;;;;;;;;;;;;;;;;;;5080513;28;19919;-71
2023/03/24 17:31:02;;;;;;;;;;;;;;;;;;5069952;28;19958;-74
2023/03/24 17:34:05;;;;;;;;;;;;;;;;;;5072234;28;19919;-72
2023/03/24 17:37:08;;;;;;;;;;;;;;;;;;5070510;28;19975;-75
2023/03/24 17:40:11;;;;;;;;;;;;;;;;;;5072318;28;20310;-72
2023/03/24 17:43:14;;;;;;;;;;;;;;;;;;5071874;28;19920;-72
2023/03/24 17:46:17;;;;;;;;;;;;;;;;;;5070581;28;19923;-73
2023/03/24 17:49:20;;;;;;;;;;;;;;;;;;5070940;28;19919;-72
2023/03/24 17:52:23;;;;;;;;;;;;;;;;;;5071634;28;20037;-72
2023/03/24 17:55:26;;;;;;;;;;;;;;;;;;5071791;28;19959;-73
2023/03/24 17:58:29;;;;;;;;;;;;;;;;;;5053053;28;20300;-72
2023/03/24 18:01:33;;;;;;;;;;;;;;;;;;5053304;28;19924;-73
2023/03/24 18:04:37;;;;;;;;;;;;;;;;;;5070615;28;20025;-73
2023/03/24 18:07:43;;;;;;;;;;;;;;;;;;5073730;28;19919;-72
2023/03/24 18:10:46;;;;;;;;;;;;;;;;;;5071958;28;19995;-73
2023/03/24 18:13:50;;;;;;;;;;;;;;;;;;5069607;28;19962;-74
2023/03/24 18:16:54;;;;;;;;;;;;;;;;;;5069138;28;19970;-74
2023/03/24 18:19:59;;;;;;;;;;;;;;;;;;5070624;28;19919;-76
2023/03/24 18:23:03;;;;;;;;;;;;;;;;;;5071272;28;19919;-76
2023/03/24 18:26:10;;;;;;;;;;;;;;;;;;5071969;28;19920;-76
2023/03/24 18:29:13;;;;;;;;;;;;;;;;;;5070000;28;20407;-77
2023/03/24 18:32:16;;;;;;;;;;;;;;;;;;5070538;28;19919;-76
2023/03/24 18:35:19;;;;;;;;;;;;;;;;;;5070860;28;19965;-74
2023/03/24 18:38:22;;;;;;;;;;;;;;;;;;5071216;28;19931;-74
2023/03/24 18:41:26;;;;;;;;;;;;;;;;;;5071643;28;19936;-73
2023/03/24 18:44:29;;;;;;;;;;;;;;;;;;5068303;28;19936;-74
2023/03/24 18:47:32;;;;;;;;;;;;;;;;;;5069607;28;19991;-74
2023/03/24 18:50:36;;;;;;;;;;;;;;;;;;5070409;28;19919;-75
2023/03/24 18:53:39;;;;;;;;;;;;;;;;;;5070551;28;19923;-73
2023/03/24 18:56:42;;;;;;;;;;;;;;;;;;5070383;28;19919;-72
2023/03/24 18:59:46;;;;;;;;;;;;;;;;;;5071548;28;20287;-72
2023/03/24 19:02:49;;;;;;;;;;;;;;;;;;5069401;28;19958;-73
2023/03/24 19:05:57;;;;;;;;;;;;;;;;;;5055779;28;19989;-72
2023/03/24 19:09:00;;;;;;;;;;;;;;;;;;5071711;28;19966;-72
2023/03/24 19:12:03;;;;;;;;;;;;;;;;;;5075324;28;20418;-71
2023/03/24 19:15:07;;;;;;;;;;;;;;;;;;5075690;28;19921;-71
2023/03/24 19:18:10;;;;;;;;;;;;;;;;;;5073198;28;20398;-71
2023/03/24 19:21:13;;;;;;;;;;;;;;;;;;5075692;28;19935;-72
2023/03/24 19:24:16;;;;;;;;;;;;;;;;;;5074040;28;19969;-73
2023/03/24 19:27:19;;;;;;;;;;;;;;;;;;5074617;28;19935;-73
2023/03/24 19:30:22;;;;;;;;;;;;;;;;;;5074669;28;19977;-73
2023/03/24 19:33:28;;;;;;;;;;;;;;;;;;5075325;28;20008;-71
2023/03/24 19:36:33;;;;;;;;;;;;;;;;;;5072887;28;19927;-71
2023/03/24 19:39:36;;;;;;;;;;;;;;;;;;5071954;28;20347;-71
2023/03/24 19:42:40;;;;;;;;;;;;;;;;;;5072882;28;19993;-72
2023/03/24 19:45:44;;;;;;;;;;;;;;;;;;5074220;28;19920;-72
2023/03/24 19:48:48;;;;;;;;;;;;;;;;;;5074498;28;19965;-73
2023/03/24 19:51:54;;;;;;;;;;;;;;;;;;5072647;28;19919;-71
2023/03/24 19:54:58;;;;;;;;;;;;;;;;;;5054770;28;20284;-71
2023/03/24 19:58:03;;;;;;;;;;;;;;;;;;5054838;28;19967;-72
2023/03/24 20:01:08;;;;;;;;;;;;;;;;;;5055484;28;19919;-72
2023/03/24 20:04:16;;;;;;;;;;;;;;;;;;5056006;28;19959;-72
2023/03/24 20:07:22;;;;;;;;;;;;;;;;;;5056012;28;20281;-73
2023/03/24 20:10:25;;;;;;;;;;;;;;;;;;5055527;28;20292;-72
2023/03/24 20:13:30;;;;;;;;;;;;;;;;;;5055421;28;19919;-72
2023/03/24 20:16:34;;;;;;;;;;;;;;;;;;5078054;28;19966;-72
2023/03/24 20:19:37;;;;;;;;;;;;;;;;;;5077143;28;20377;-71
2023/03/24 20:22:41;;;;;;;;;;;;;;;;;;5054989;28;19936;-71
2023/03/24 20:25:44;;;;;;;;;;;;;;;;;;5055352;28;19958;-70
2023/03/24 20:28:50;;;;;;;;;;;;;;;;;;5055038;28;20388;-71
2023/03/24 20:31:54;;;;;;;;;;;;;;;;;;5054983;28;19919;-71
2023/03/24 20:34:58;;;;;;;;;;;;;;;;;;5055073;28;19919;-71
2023/03/24 20:38:01;;;;;;;;;;;;;;;;;;5054817;28;19928;-71
2023/03/24 20:41:05;;;;;;;;;;;;;;;;;;5054760;28;19966;-72
2023/03/24 20:44:08;;;;;;;;;;;;;;;;;;5053847;28;20066;-72
2023/03/24 20:47:18;;;;;;;;;;;;;;;;;;5054369;28;19920;-72
2023/03/24 20:50:21;;;;;;;;;;;;;;;;;;5054735;28;19923;-71
2023/03/24 20:53:24;;;;;;;;;;;;;;;;;;5054967;28;19923;-71
2023/03/24 20:56:27;;;;;;;;;;;;;;;;;;5072482;28;19965;-71
2023/03/24 20:59:31;;;;;;;;;;;;;;;;;;5072290;28;20411;-71
2023/03/24 21:02:34;;;;;;;;;;;;;;;;;;5083549;28;20017;-71
2023/03/24 21:05:37;;;;;;;;;;;;;;;;;;5071579;28;19923;-71
2023/03/24 21:08:40;;;;;;;;;;;;;;;;;;5072343;28;19919;-72
2023/03/24 21:11:43;;;;;;;;;;;;;;;;;;5072214;28;19919;-71
2023/03/24 21:14:46;;;;;;;;;;;;;;;;;;5072699;28;19939;-73